Amery, Wisconsin
Current Conditions -  °F | °C
As of 11:15 AM on Saturday 25 Oct 2014 (Local Time) from KRNH Reporting Station
Clear Clear  
Wind Chill: 56°   Ceiling: Unl
Heat Index: 56°   Visibility: 10mi
Dew Point: 32°   Wind: 15mph
Humidity: 39%   Direction: 310°NW
Pressure: 30.02"   Gusts: 24mph
Location:  45.31°N, 92.36°W
Report Text: KRNH 251615Z AUTO 31013G21KT 10SM CLR 14/00 A3002 RMK AO2 T01351002
Loading
Personal Weather Stations






























Interactive Weather Map New forecast layout! Learn more

10-Day Weather Forecast

Advertisements
Track Severe Weather on mobile